White Mountain, AK

5:20 PM AKST on December 20, 2014 (GMT -0900)
White Mountain | Change Station
CLOSE
Current Station
Airport
Location: White Mountain,
Elevation: 266 ft
Nearby Weather Stations

Elev 266 ft 64.69 °N, 163.41 °W | Updated 2 hours ago

Clear
Clear
7 °F
Feels Like -9 °F
N
12
Wind Variable Wind from NW

Today
High -- | Low -- °F
--% Chance of Precip.
Yesterday
High -- | Low -- °F
Precip. -- in
12:00 PM 3:41 PM
Waning Crescent, 1% visible
Pressure 29.27 in
Visibility 10.0 miles
Clouds Clear
Windchill -9 °F
Dew Point 1 °F
Humidity 79%
Rainfall 0.00 in
Snow Depth Not available.
UV 0 out of 12
Pollen Not available.
Air Quality Not available.
Flu Activity Not available.
METAR PAWM 202355Z 32010KT 10SM CLR M14/M17 A2927 RMK FZRANO VIA PHONE

More Conditions Fewer Conditions

Pressure 29.27 in
Visibility 10.0 miles
Clouds Clear
Windchill -9 °F
Dew Point 1 °F
Humidity 79%
Rainfall 0.00 in
Snow Depth Not available.
UV 0 out of 12
Pollen Not available.
Air Quality Not available.
Flu Activity Not available.
METAR PAWM 202355Z 32010KT 10SM CLR M14/M17 A2927 RMK FZRANO VIA PHONE

More Conditions Fewer Conditions

10-Day Weather Forecast

Almanac

Astronomy

Dec. 20, 2014 Rise Set
Actual Time
Civil Twilight
Nautical Twilight
Astronomical Twilight
Moon
Length of Visible Light
Length of Day
Tomorrow will be .
, % of the Moon is Illuminated

Today's Extremes

State Highs State Lows

Community

WunderPhotos

Upload Photos

1,779,348 photos uploaded!

WunderBlogs® & News

Nearby

Air Quality

  Air Quality AQ Index Pollutant
Not available.

Snow Depth

Station Depth Elevation

Earthquake Activity

City Distance Mag. Time & Date
Minimum magnitude displayed is 2.5.

Coastal Water Temperatures

Place Temperature

Nearby Weather Stations